Time;durP1;ratioP1;P1;durP2;ratioP2;P2;SDS_P1;SDS_P2;PMS_P1;PMS_P2;Temp;Humidity;BMP_temperature;BMP_pressure;BME280_temperature;BME280_humidity;BME280_pressure;Samples;Min_cycle;Max_cycle;Signal;HPM_P1;HPM_P2
2021/04/19 00:02:11;;;;;;;30.10;21.77;;;9.30;99.90;;;;;;5016647;28;20202;-94
2021/04/19 00:04:38;;;;;;;26.77;19.87;;;9.30;99.90;;;;;;5016775;28;20166;-94
2021/04/19 00:07:04;;;;;;;25.77;20.13;;;9.30;99.90;;;;;;5016797;28;20169;-94
2021/04/19 00:09:31;;;;;;;27.23;20.90;;;9.30;99.90;;;;;;5016692;28;20175;-94
2021/04/19 00:11:57;;;;;;;30.57;22.77;;;9.20;99.90;;;;;;5016658;28;20225;-94
2021/04/19 00:14:23;;;;;;;36.97;24.60;;;9.20;99.90;;;;;;5016514;28;20666;-94
2021/04/19 00:16:49;;;;;;;41.30;25.50;;;9.20;99.90;;;;;;5017057;28;20170;-94
2021/04/19 00:19:15;;;;;;;34.67;23.30;;;9.10;99.90;;;;;;5017629;28;20167;-96
2021/04/19 00:21:40;;;;;;;33.93;22.70;;;9.10;99.90;;;;;;5016585;28;20247;-94
2021/04/19 00:24:06;;;;;;;31.97;23.90;;;9.10;99.90;;;;;;5016503;28;20623;-95
2021/04/19 00:26:32;;;;;;;31.67;23.67;;;9.00;99.90;;;;;;5016974;28;20178;-95
2021/04/19 00:28:58;;;;;;;36.97;26.30;;;9.00;99.90;;;;;;5016769;28;20163;-95
2021/04/19 00:31:24;;;;;;;36.90;24.50;;;9.00;99.90;;;;;;5016372;28;20689;-96
2021/04/19 00:33:50;;;;;;;35.20;24.10;;;9.00;99.90;;;;;;5016338;28;20159;-96
2021/04/19 00:36:16;;;;;;;36.63;25.40;;;9.00;99.90;;;;;;5016405;28;20589;-93
2021/04/19 00:41:31;;;;;;;32.67;25.07;;;9.00;99.90;;;;;;5275420;23;20291;-96
2021/04/19 00:44:00;;;;;;;28.43;21.30;;;9.00;99.90;;;;;;5040128;28;20193;-96
2021/04/19 00:46:28;;;;;;;28.67;20.53;;;9.00;99.90;;;;;;5041421;28;20178;-96
2021/04/19 00:48:54;;;;;;;27.00;20.20;;;8.90;99.90;;;;;;5042124;28;20193;-96
2021/04/19 00:51:23;;;;;;;27.50;20.87;;;8.90;99.90;;;;;;5046433;28;20182;-96
2021/04/19 00:53:49;;;;;;;32.07;23.80;;;8.90;99.90;;;;;;5042162;28;20194;-96
2021/04/19 00:56:18;;;;;;;34.27;24.23;;;8.80;99.90;;;;;;5075108;28;20192;-96
2021/04/19 00:58:51;;;;;;;33.10;23.73;;;8.80;99.90;;;;;;5048360;28;20198;-96
2021/04/19 01:01:18;;;;;;;34.93;22.00;;;8.80;99.90;;;;;;5064733;28;20193;-96
2021/04/19 01:03:45;;;;;;;30.93;20.93;;;8.80;99.90;;;;;;5048047;28;20197;-95
2021/04/19 01:06:15;;;;;;;26.67;19.73;;;8.80;99.90;;;;;;5081877;28;20163;-96
2021/04/19 01:08:43;;;;;;;23.60;18.53;;;8.80;99.90;;;;;;5064044;28;20170;-96
2021/04/19 01:11:14;;;;;;;23.33;19.13;;;8.80;99.90;;;;;;5063243;28;20178;-96
2021/04/19 01:13:49;;;;;;;27.63;19.47;;;8.70;99.90;;;;;;5040721;28;20184;-96
2021/04/19 01:16:16;;;;;;;24.77;18.23;;;8.80;99.90;;;;;;5023917;28;20205;-95
2021/04/19 01:18:43;;;;;;;25.00;18.77;;;8.80;99.90;;;;;;5024490;28;20244;-96
2021/04/19 01:21:11;;;;;;;26.73;17.90;;;8.80;99.90;;;;;;5023134;28;20215;-96
2021/04/19 01:23:37;;;;;;;22.57;17.87;;;8.80;99.90;;;;;;5007924;28;20205;-96
2021/04/19 01:26:05;;;;;;;23.10;17.40;;;8.80;99.90;;;;;;5007657;28;20183;-96
2021/04/19 01:28:54;;;;;;;25.67;18.37;;;8.80;99.90;;;;;;5037676;28;20202;-96
2021/04/19 01:31:20;;;;;;;23.73;18.27;;;8.80;99.90;;;;;;5013734;28;20286;-96
2021/04/19 01:33:47;;;;;;;24.50;18.70;;;8.80;99.90;;;;;;5014118;28;20207;-96
2021/04/19 01:36:13;;;;;;;23.33;17.83;;;8.80;99.90;;;;;;5014354;28;20222;-96
2021/04/19 01:38:46;;;;;;;23.13;18.73;;;8.80;99.90;;;;;;5011990;28;20191;-96
2021/04/19 01:41:13;;;;;;;25.63;18.73;;;8.80;99.90;;;;;;5014710;28;20231;-96
2021/04/19 01:43:39;;;;;;;25.70;20.10;;;8.80;99.90;;;;;;5004666;28;20183;-96
2021/04/19 01:46:12;;;;;;;26.33;18.90;;;8.80;99.90;;;;;;5056536;28;20241;-96
2021/04/19 01:48:39;;;;;;;25.40;18.03;;;8.80;99.90;;;;;;5074224;28;20165;-96
2021/04/19 01:51:05;;;;;;;23.63;19.17;;;8.80;99.90;;;;;;5054805;22;20306;-95
2021/04/19 01:53:31;;;;;;;29.40;21.37;;;8.70;99.90;;;;;;5019230;28;20289;-92
2021/04/19 01:55:57;;;;;;;25.50;19.30;;;8.70;99.90;;;;;;5019216;28;20368;-92
2021/04/19 01:58:25;;;;;;;26.60;18.53;;;8.80;99.90;;;;;;5018929;28;20174;-93
2021/04/19 02:00:58;;;;;;;27.17;18.90;;;8.80;99.90;;;;;;5018867;28;20286;-95
2021/04/19 02:03:36;;;;;;;27.87;20.00;;;8.70;99.90;;;;;;5019662;28;20163;-96
2021/04/19 02:06:27;;;;;;;30.53;22.73;;;8.70;99.90;;;;;;5018363;28;20265;-93
2021/04/19 02:08:57;;;;;;;27.90;20.63;;;8.60;99.90;;;;;;5004878;28;20767;-93
2021/04/19 02:11:35;;;;;;;28.90;21.30;;;8.60;99.90;;;;;;5018537;28;20198;-92
2021/04/19 02:14:23;;;;;;;31.50;21.40;;;8.60;99.90;;;;;;5018444;28;20224;-92
2021/04/19 02:17:07;;;;;;;34.57;23.53;;;8.60;99.90;;;;;;5018881;28;20167;-93
2021/04/19 02:19:49;;;;;;;32.70;22.83;;;8.60;99.90;;;;;;5018343;28;20171;-93
2021/04/19 02:22:21;;;;;;;35.80;23.87;;;8.60;99.90;;;;;;5018311;28;20281;-92
2021/04/19 02:24:49;;;;;;;31.83;22.67;;;8.60;99.90;;;;;;5018486;28;20170;-93
2021/04/19 02:27:26;;;;;;;34.13;23.73;;;8.50;99.90;;;;;;5018343;28;20170;-92
2021/04/19 02:29:54;;;;;;;32.60;22.93;;;8.50;99.90;;;;;;5018658;28;20174;-92
2021/04/19 02:32:26;;;;;;;34.20;24.03;;;8.50;99.90;;;;;;5019121;28;20657;-96
2021/04/19 02:34:54;;;;;;;33.70;24.47;;;8.50;99.90;;;;;;5020822;28;20225;-95
2021/04/19 02:37:21;;;;;;;35.37;24.73;;;8.50;99.90;;;;;;5019009;28;20174;-92
2021/04/19 02:39:50;;;;;;;37.27;25.57;;;8.50;99.90;;;;;;5018491;28;20167;-94
2021/04/19 02:42:16;;;;;;;35.57;24.80;;;8.50;99.90;;;;;;5017958;28;20669;-92
2021/04/19 02:44:47;;;;;;;35.73;25.17;;;8.50;99.90;;;;;;5018290;28;20197;-92
2021/04/19 02:47:15;;;;;;;37.77;25.17;;;8.50;99.90;;;;;;5019067;28;20202;-92
2021/04/19 02:49:41;;;;;;;35.07;24.60;;;8.50;99.90;;;;;;5020733;28;20430;-94
2021/04/19 02:52:08;;;;;;;34.63;25.37;;;8.50;99.90;;;;;;5040049;28;20258;-94
2021/04/19 02:54:37;;;;;;;37.87;28.37;;;8.40;99.90;;;;;;5044112;28;20195;-95
2021/04/19 02:57:08;;;;;;;38.20;27.63;;;8.50;99.90;;;;;;5033987;28;20182;-95
2021/04/19 02:59:34;;;;;;;36.73;26.87;;;8.50;99.90;;;;;;5034236;28;20190;-94
2021/04/19 03:02:07;;;;;;;32.53;25.00;;;8.40;99.90;;;;;;5034168;28;20199;-95
2021/04/19 03:04:37;;;;;;;30.10;24.00;;;8.40;99.90;;;;;;5034232;28;20197;-94
2021/04/19 03:07:07;;;;;;;35.33;25.17;;;8.40;99.90;;;;;;5033975;28;20187;-94
2021/04/19 03:09:37;;;;;;;32.27;23.53;;;8.40;99.90;;;;;;5034335;28;20639;-93
2021/04/19 03:12:07;;;;;;;24.03;17.80;;;8.40;99.90;;;;;;5034035;28;20566;-93
2021/04/19 03:14:36;;;;;;;27.27;18.50;;;8.40;99.90;;;;;;5033986;28;20195;-91
2021/04/19 03:17:13;;;;;;;25.07;19.00;;;8.40;99.90;;;;;;5033897;28;20190;-92
2021/04/19 03:19:44;;;;;;;25.77;18.27;;;8.40;99.90;;;;;;5033097;28;20188;-91
2021/04/19 03:22:12;;;;;;;30.73;21.67;;;8.30;99.90;;;;;;5033693;28;20221;-93
2021/04/19 03:24:39;;;;;;;30.63;21.90;;;8.20;99.90;;;;;;5033723;28;20163;-92
2021/04/19 03:27:06;;;;;;;32.43;22.43;;;8.20;99.90;;;;;;5033824;28;20171;-93
2021/04/19 03:29:34;;;;;;;28.13;21.23;;;8.20;99.90;;;;;;5033521;28;20171;-93
2021/04/19 03:32:07;;;;;;;29.93;21.30;;;8.20;99.90;;;;;;5033521;28;20293;-94
2021/04/19 03:34:35;;;;;;;28.27;20.73;;;8.20;99.90;;;;;;5033347;28;20205;-94
2021/04/19 03:37:05;;;;;;;30.83;21.13;;;8.20;99.90;;;;;;5033527;28;20609;-91
2021/04/19 03:39:33;;;;;;;24.57;18.50;;;8.20;99.90;;;;;;5033731;28;20202;-93
2021/04/19 03:41:59;;;;;;;23.07;17.57;;;8.10;99.90;;;;;;5033415;28;20202;-92
2021/04/19 03:44:29;;;;;;;24.27;17.27;;;8.10;99.90;;;;;;5033301;28;20189;-94
2021/04/19 03:46:57;;;;;;;24.80;17.73;;;8.00;99.90;;;;;;5033438;28;20171;-93
2021/04/19 03:49:44;;;;;;;25.57;17.40;;;8.00;99.90;;;;;;5035132;28;20213;-92
2021/04/19 03:52:14;;;;;;;23.07;18.00;;;8.00;99.90;;;;;;5036684;28;20208;-94
2021/04/19 03:54:45;;;;;;;21.60;16.70;;;8.00;99.90;;;;;;5036325;28;20198;-94
2021/04/19 03:57:17;;;;;;;24.03;17.13;;;7.90;99.90;;;;;;5036519;28;20188;-93
2021/04/19 03:59:48;;;;;;;25.70;17.37;;;7.90;99.90;;;;;;5036167;28;20219;-96
2021/04/19 04:02:16;;;;;;;22.30;17.00;;;7.90;99.90;;;;;;5035833;28;20292;-96
2021/04/19 04:04:44;;;;;;;22.07;16.43;;;7.90;99.90;;;;;;5036252;28;20224;-93
2021/04/19 04:07:13;;;;;;;19.43;16.13;;;7.90;99.90;;;;;;5036896;28;20177;-94
2021/04/19 04:09:42;;;;;;;20.70;16.50;;;7.90;99.90;;;;;;5036494;28;20257;-93
2021/04/19 04:12:09;;;;;;;23.07;16.20;;;7.90;99.90;;;;;;5019297;28;20232;-94
2021/04/19 04:14:36;;;;;;;25.10;16.93;;;7.80;99.90;;;;;;5036268;28;20209;-95
2021/04/19 04:17:03;;;;;;;26.10;17.63;;;7.80;99.90;;;;;;5036675;28;20205;-93
2021/04/19 04:19:29;;;;;;;25.83;18.27;;;7.70;99.90;;;;;;5036605;28;20174;-92
2021/04/19 04:21:56;;;;;;;22.17;17.17;;;7.70;99.90;;;;;;5021756;28;20202;-94
2021/04/19 04:24:22;;;;;;;22.43;16.90;;;7.70;99.90;;;;;;5016496;28;20186;-91
2021/04/19 04:26:48;;;;;;;23.30;16.70;;;7.60;99.90;;;;;;5023108;28;20683;-94
2021/04/19 04:29:14;;;;;;;22.50;16.40;;;7.60;99.90;;;;;;5037110;28;20605;-93
2021/04/19 04:31:41;;;;;;;20.87;15.90;;;7.50;99.90;;;;;;5040589;28;20224;-92
2021/04/19 04:34:07;;;;;;;21.37;16.27;;;7.60;99.90;;;;;;5040504;28;20170;-91
2021/04/19 04:36:33;;;;;;;20.87;15.00;;;7.60;99.90;;;;;;5040292;28;20620;-93
2021/04/19 04:38:58;;;;;;;19.97;15.87;;;7.70;99.90;;;;;;5040301;28;20173;-92
2021/04/19 04:41:24;;;;;;;21.13;15.77;;;7.70;99.90;;;;;;5040053;28;20290;-95
2021/04/19 04:43:53;;;;;;;20.37;15.60;;;7.70;99.90;;;;;;5039708;28;20170;-93
2021/04/19 04:46:37;;;;;;;20.90;16.33;;;7.70;99.90;;;;;;5040148;28;20257;-92
2021/04/19 04:49:14;;;;;;;18.57;15.00;;;7.80;99.90;;;;;;5040346;28;20170;-94
2021/04/19 04:51:43;;;;;;;18.40;14.33;;;7.80;99.90;;;;;;5040280;28;20212;-92
2021/04/19 04:54:13;;;;;;;18.57;14.87;;;7.80;99.90;;;;;;5040012;28;20185;-93
2021/04/19 04:56:42;;;;;;;17.93;14.37;;;7.80;99.90;;;;;;5039855;28;20641;-93
2021/04/19 04:59:10;;;;;;;21.67;16.10;;;7.80;99.90;;;;;;5040458;28;20174;-93
2021/04/19 05:01:37;;;;;;;20.97;14.77;;;7.80;99.90;;;;;;5039536;28;20198;-92
2021/04/19 05:04:05;;;;;;;23.93;17.33;;;7.80;99.90;;;;;;5039827;28;20177;-95
2021/04/19 05:06:32;;;;;;;22.70;16.47;;;7.80;99.90;;;;;;5039891;28;20170;-94
2021/04/19 05:08:58;;;;;;;22.23;16.50;;;7.80;99.90;;;;;;5039547;28;20178;-94
2021/04/19 05:11:24;;;;;;;22.00;16.87;;;7.70;99.90;;;;;;5039513;28;20201;-93
2021/04/19 05:13:50;;;;;;;22.50;15.93;;;7.80;99.90;;;;;;5039731;28;20173;-94
2021/04/19 05:16:26;;;;;;;22.43;16.20;;;7.70;99.90;;;;;;5039733;28;20205;-93
2021/04/19 05:18:52;;;;;;;19.70;15.63;;;7.70;99.90;;;;;;5039946;28;20256;-93
2021/04/19 05:21:17;;;;;;;23.73;17.10;;;7.70;99.90;;;;;;5039175;28;20222;-93
2021/04/19 05:23:43;;;;;;;29.00;18.40;;;7.70;99.90;;;;;;5039823;28;20622;-92
2021/04/19 05:26:10;;;;;;;27.33;19.37;;;7.70;99.90;;;;;;5039999;28;20205;-92
2021/04/19 05:28:41;;;;;;;24.70;18.20;;;7.70;99.90;;;;;;5039591;28;20174;-95
2021/04/19 05:31:11;;;;;;;27.17;18.60;;;7.70;99.90;;;;;;5040167;28;20311;-96
2021/04/19 05:33:38;;;;;;;32.57;18.90;;;7.70;99.90;;;;;;5043560;28;20537;-96
2021/04/19 05:36:09;;;;;;;28.13;18.20;;;7.70;99.90;;;;;;5042033;28;20213;-94
2021/04/19 05:38:37;;;;;;;29.83;17.23;;;7.70;99.90;;;;;;5042575;28;20189;-93
2021/04/19 05:41:03;;;;;;;29.80;17.57;;;7.70;99.90;;;;;;5038010;28;20174;-95
2021/04/19 05:43:29;;;;;;;31.93;18.13;;;7.70;99.90;;;;;;5039120;28;20170;-95
2021/04/19 05:45:57;;;;;;;27.77;15.20;;;7.70;99.90;;;;;;5039426;28;20239;-93
2021/04/19 05:48:24;;;;;;;32.03;17.37;;;7.60;99.90;;;;;;5038978;28;20270;-93
2021/04/19 05:50:57;;;;;;;28.87;15.90;;;7.60;99.90;;;;;;5035528;28;20245;-93
2021/04/19 05:53:24;;;;;;;31.17;18.37;;;7.60;99.90;;;;;;5029416;28;20627;-95
2021/04/19 05:55:53;;;;;;;29.10;17.27;;;7.60;99.90;;;;;;5024726;28;20201;-93
2021/04/19 05:58:41;;;;;;;29.37;17.83;;;7.60;99.90;;;;;;5015559;28;20179;-94
2021/04/19 06:01:16;;;;;;;30.33;18.37;;;7.60;99.90;;;;;;5015499;28;20172;-95
2021/04/19 06:03:53;;;;;;;29.53;18.07;;;7.70;99.90;;;;;;5015673;28;20167;-93
2021/04/19 06:06:37;;;;;;;30.80;17.90;;;7.60;99.90;;;;;;5024310;28;20237;-92
2021/04/19 06:09:08;;;;;;;31.57;18.67;;;7.70;99.90;;;;;;5035376;28;20201;-91
2021/04/19 06:12:03;;;;;;;33.67;19.13;;;7.80;99.90;;;;;;5035041;28;20198;-94
2021/04/19 06:14:36;;;;;;;40.63;22.97;;;7.80;99.90;;;;;;5035014;28;20201;-93
2021/04/19 06:17:04;;;;;;;34.23;20.60;;;7.70;99.90;;;;;;5034929;28;20167;-92
2021/04/19 06:19:32;;;;;;;33.93;21.57;;;7.80;99.90;;;;;;5034945;28;20171;-94
2021/04/19 06:21:58;;;;;;;37.77;22.40;;;7.80;99.90;;;;;;5028315;28;20261;-91
2021/04/19 06:24:24;;;;;;;34.27;21.97;;;7.80;99.90;;;;;;5015114;28;20189;-95
2021/04/19 06:26:50;;;;;;;34.23;21.33;;;7.80;99.90;;;;;;5015141;28;20179;-91
2021/04/19 06:29:28;;;;;;;30.37;19.83;;;7.80;99.90;;;;;;5014975;28;20202;-93
2021/04/19 06:38:24;;;;;;;31.13;20.17;;;7.90;99.90;;;;;;5017086;28;20218;-94
2021/04/19 06:40:53;;;;;;;34.33;21.00;;;7.90;99.90;;;;;;5024217;28;20211;-92
2021/04/19 06:43:18;;;;;;;33.10;19.90;;;8.00;99.90;;;;;;5028741;28;20167;-93
2021/04/19 06:45:56;;;;;;;31.70;20.27;;;7.90;99.90;;;;;;5014889;28;20635;-92
2021/04/19 06:48:24;;;;;;;33.17;20.83;;;8.00;99.90;;;;;;5014972;28;20174;-92
2021/04/19 06:50:52;;;;;;;29.77;20.30;;;8.00;99.90;;;;;;5004887;28;20231;-93
2021/04/19 06:53:32;;;;;;;31.17;20.10;;;7.90;99.90;;;;;;4998345;28;20207;-92
2021/04/19 06:56:11;;;;;;;30.60;19.73;;;7.90;99.90;;;;;;4998294;28;20217;-94
2021/04/19 07:04:51;;;;;;;29.00;19.07;;;8.10;99.90;;;;;;5015972;28;20210;-93
2021/04/19 07:07:26;;;;;;;32.07;21.77;;;8.10;99.90;;;;;;4998211;28;20171;-93
2021/04/19 07:09:55;;;;;;;29.00;20.50;;;8.10;99.90;;;;;;4998316;28;20163;-93
2021/04/19 07:12:44;;;;;;;33.60;20.27;;;8.10;99.90;;;;;;4997995;28;20199;-95
2021/04/19 07:15:10;;;;;;;31.27;21.23;;;8.10;99.90;;;;;;4999236;28;20195;-96
2021/04/19 07:17:36;;;;;;;32.30;21.17;;;8.20;99.90;;;;;;4999942;28;20223;-96
2021/04/19 07:20:17;;;;;;;34.37;21.93;;;8.20;99.90;;;;;;4999774;28;20255;-95
2021/04/19 07:23:08;;;;;;;32.73;22.37;;;8.30;99.90;;;;;;4997956;28;20199;-94
2021/04/19 07:25:33;;;;;;;33.93;22.90;;;8.30;99.90;;;;;;5014373;28;20266;-94
2021/04/19 07:28:03;;;;;;;34.20;23.57;;;8.30;99.90;;;;;;5003610;28;20291;-94
2021/04/19 07:30:29;;;;;;;45.90;32.37;;;8.30;99.90;;;;;;5014545;28;20514;-93
2021/04/19 07:32:55;;;;;;;35.07;24.50;;;8.20;99.90;;;;;;5001688;28;20206;-92
2021/04/19 07:35:29;;;;;;;37.57;26.13;;;8.20;99.90;;;;;;4997274;28;20207;-93
2021/04/19 07:38:07;;;;;;;37.73;27.30;;;8.30;99.90;;;;;;4997257;28;20163;-92
2021/04/19 07:40:35;;;;;;;43.50;31.37;;;8.30;99.90;;;;;;4997321;28;20171;-95
2021/04/19 07:43:19;;;;;;;39.90;29.33;;;8.20;99.90;;;;;;4997350;28;20693;-92
2021/04/19 07:46:21;;;;;;;37.43;27.57;;;8.20;99.90;;;;;;4997405;28;20179;-95
2021/04/19 07:48:50;;;;;;;37.10;26.10;;;8.10;99.90;;;;;;4965911;28;20188;-90
2021/04/19 07:51:35;;;;;;;38.97;26.67;;;8.10;99.90;;;;;;4997291;28;20285;-93
2021/04/19 07:54:22;;;;;;;37.20;26.20;;;8.10;99.90;;;;;;4996642;28;20270;-94
2021/04/19 07:56:54;;;;;;;37.27;26.47;;;8.10;99.90;;;;;;4995659;28;20183;-93
2021/04/19 07:59:21;;;;;;;37.37;26.10;;;8.10;99.90;;;;;;4996074;28;20178;-94
2021/04/19 08:01:55;;;;;;;35.33;25.20;;;8.10;99.90;;;;;;4996964;28;20238;-93
2021/04/19 08:04:20;;;;;;;35.30;25.70;;;8.20;99.90;;;;;;4997676;28;20183;-95
2021/04/19 08:06:46;;;;;;;35.87;25.13;;;8.20;99.90;;;;;;4997127;28;20294;-95
2021/04/19 08:09:12;;;;;;;34.53;24.90;;;8.20;99.90;;;;;;4997108;28;20619;-94
2021/04/19 08:11:44;;;;;;;37.13;25.10;;;8.20;99.90;;;;;;4996933;28;20659;-95
2021/04/19 08:14:11;;;;;;;36.30;24.40;;;8.20;99.90;;;;;;4997057;28;20176;-93
2021/04/19 08:16:36;;;;;;;39.50;25.37;;;8.30;99.90;;;;;;4997163;28;20175;-92
2021/04/19 08:19:06;;;;;;;30.57;20.83;;;8.10;99.90;;;;;;4997136;28;20180;-95
2021/04/19 08:21:34;;;;;;;32.73;23.10;;;8.20;99.90;;;;;;4997395;28;20195;-94
2021/04/19 08:24:17;;;;;;;32.93;23.97;;;8.10;99.90;;;;;;5021636;28;20171;-92
2021/04/19 08:27:06;;;;;;;34.17;24.87;;;8.10;99.90;;;;;;5022204;28;20181;-92
2021/04/19 08:29:42;;;;;;;29.20;21.90;;;8.20;99.90;;;;;;5025525;28;20174;-92
2021/04/19 08:32:08;;;;;;;31.77;21.63;;;8.30;99.90;;;;;;5024233;28;20198;-95
2021/04/19 08:34:35;;;;;;;27.30;19.40;;;8.30;99.90;;;;;;5016847;28;20191;-93
2021/04/19 08:37:03;;;;;;;36.90;23.90;;;8.40;99.90;;;;;;5016382;28;20182;-92
2021/04/19 08:39:33;;;;;;;34.47;23.90;;;8.30;99.90;;;;;;5016630;28;20171;-95
2021/04/19 08:42:01;;;;;;;30.70;21.47;;;8.40;99.90;;;;;;5016084;28;20281;-94
2021/04/19 08:44:36;;;;;;;28.10;19.57;;;8.40;99.90;;;;;;5013296;28;20171;-94
2021/04/19 08:47:07;;;;;;;29.80;19.03;;;8.40;99.90;;;;;;4999624;28;20185;-96
2021/04/19 08:59:32;;;;;;;26.27;18.83;;;8.40;99.90;;;;;;5014337;28;20643;-93
2021/04/19 09:05:13;;;;;;;24.27;17.47;;;8.50;99.90;;;;;;5020027;28;20174;-96
2021/04/19 09:08:19;;;;;;;26.80;18.90;;;8.60;99.90;;;;;;5013468;28;20179;-96
2021/04/19 09:11:06;;;;;;;25.97;17.03;;;8.60;99.90;;;;;;5020883;28;20296;-93
2021/04/19 09:13:54;;;;;;;25.93;17.43;;;8.70;99.90;;;;;;5033739;28;20225;-94
2021/04/19 09:16:24;;;;;;;25.83;17.80;;;8.80;99.90;;;;;;5035628;28;20195;-94
2021/04/19 09:18:57;;;;;;;23.27;15.87;;;9.00;99.90;;;;;;5036851;28;20648;-91
2021/04/19 09:21:51;;;;;;;22.47;15.97;;;9.20;99.90;;;;;;5034789;28;20209;-93
2021/04/19 09:24:59;;;;;;;24.63;16.17;;;9.40;99.90;;;;;;5036460;28;20170;-92
2021/04/19 09:31:07;;;;;;;22.73;15.90;;;9.70;99.90;;;;;;5037189;28;20282;-93
2021/04/19 09:34:10;;;;;;;19.90;14.27;;;9.90;99.90;;;;;;5035986;28;20253;-92
2021/04/19 09:36:54;;;;;;;19.43;14.80;;;9.90;99.90;;;;;;5035574;28;20228;-94
2021/04/19 09:40:01;;;;;;;23.47;16.10;;;10.00;99.90;;;;;;5036227;28;20549;-92
2021/04/19 09:42:49;;;;;;;24.10;17.10;;;9.90;99.90;;;;;;5036910;28;20202;-94
2021/04/19 09:45:40;;;;;;;25.27;15.97;;;10.20;99.90;;;;;;5035910;28;20174;-91
2021/04/19 09:48:51;;;;;;;20.43;14.37;;;10.30;99.90;;;;;;5032287;28;20535;-93
2021/04/19 09:51:23;;;;;;;20.30;14.93;;;10.40;99.90;;;;;;5015555;28;20250;-95
2021/04/19 10:06:10;;;;;;;20.30;16.13;;;11.10;99.90;;;;;;5038121;28;20543;-94
2021/04/19 10:08:43;;;;;;;20.20;14.67;;;11.30;99.90;;;;;;5040172;28;20638;-96
2021/04/19 10:11:18;;;;;;;20.07;14.57;;;11.40;99.90;;;;;;5033348;28;20182;-94
2021/04/19 10:14:12;;;;;;;19.53;15.43;;;11.40;99.90;;;;;;5015845;28;20182;-92
2021/04/19 10:16:49;;;;;;;21.27;15.73;;;11.40;99.90;;;;;;5020178;28;20644;-93
2021/04/19 10:23:22;;;;;;;20.33;16.27;;;11.50;99.90;;;;;;5037139;28;20237;-93
2021/04/19 10:29:22;;;;;;;21.93;17.40;;;11.30;99.90;;;;;;5036790;28;20593;-91
2021/04/19 10:32:13;;;;;;;20.73;17.03;;;11.20;99.90;;;;;;5034878;28;20281;-94
2021/04/19 10:34:45;;;;;;;24.33;17.90;;;11.00;99.90;;;;;;5035130;28;20206;-93
2021/04/19 10:37:13;;;;;;;19.63;16.67;;;11.10;99.90;;;;;;5034968;28;20197;-92
2021/04/19 10:39:41;;;;;;;23.17;16.87;;;11.00;99.90;;;;;;5035074;28;20170;-95
2021/04/19 10:42:35;;;;;;;25.17;17.40;;;11.00;99.90;;;;;;5034280;28;20277;-91
2021/04/19 10:45:38;;;;;;;20.97;16.03;;;11.10;99.90;;;;;;5036364;28;20548;-94
2021/04/19 10:48:32;;;;;;;22.93;17.20;;;11.30;99.90;;;;;;5035638;28;20174;-95
2021/04/19 10:51:28;;;;;;;21.33;17.53;;;11.50;99.90;;;;;;5035438;28;20289;-94
2021/04/19 10:54:11;;;;;;;24.43;18.07;;;11.70;99.90;;;;;;5045874;28;20175;-91
2021/04/19 10:56:52;;;;;;;23.95;18.92;;;11.80;99.90;;;;;;5036255;28;20198;-94
2021/04/19 10:59:36;;;;;;;25.07;18.87;;;11.80;99.90;;;;;;5031760;28;20171;-92
2021/04/19 11:02:14;;;;;;;23.47;18.50;;;12.00;99.90;;;;;;5029331;28;20217;-93
2021/04/19 11:04:59;;;;;;;28.20;19.33;;;12.20;99.90;;;;;;5016210;28;20193;-92
2021/04/19 11:08:05;;;;;;;22.03;16.23;;;12.30;99.90;;;;;;5014792;28;20183;-94
2021/04/19 11:11:14;;;;;;;20.63;15.07;;;12.20;99.90;;;;;;5014776;28;20199;-92
2021/04/19 11:13:51;;;;;;;19.35;15.57;;;12.20;99.90;;;;;;5014675;28;20171;-93
2021/04/19 11:16:22;;;;;;;20.00;16.23;;;12.30;99.90;;;;;;5033096;28;20194;-90
2021/04/19 11:18:50;;;;;;;23.13;15.80;;;12.30;99.90;;;;;;5034436;28;20661;-95
2021/04/19 11:24:44;;;;;;;45.37;18.70;;;12.40;99.90;;;;;;5035334;28;20568;-92
2021/04/19 11:30:43;;;;;;;20.95;15.60;;;12.80;99.90;;;;;;5009558;28;20237;-93
2021/04/19 11:33:34;;;;;;;21.80;16.77;;;12.90;99.90;;;;;;5029700;28;20230;-93
2021/04/19 11:39:24;;;;;;;20.98;16.60;;;12.80;99.90;;;;;;5009800;28;20201;-95
2021/04/19 11:41:53;;;;;;;23.25;16.23;;;12.90;99.90;;;;;;5014105;28;20589;-91
2021/04/19 11:44:19;;;;;;;21.45;15.75;;;13.10;99.90;;;;;;5027403;28;20183;-94
2021/04/19 11:47:09;;;;;;;21.05;15.95;;;13.20;99.90;;;;;;5034997;28;20163;-92
2021/04/19 11:49:37;;;;;;;25.08;16.27;;;13.40;99.90;;;;;;5034118;28;20232;-94
2021/04/19 11:52:20;;;;;;;22.20;16.80;;;13.30;99.90;;;;;;5017488;28;20240;-92
2021/04/19 11:55:02;;;;;;;24.42;16.35;;;13.30;99.90;;;;;;5017307;28;20171;-91
2021/04/19 11:57:51;;;;;;;50.70;19.45;;;13.30;99.90;;;;;;5017626;28;20451;-95
2021/04/19 12:00:52;;;;;;;19.55;14.63;;;13.20;99.90;;;;;;4999590;28;20655;-91
2021/04/19 12:03:29;;;;;;;18.90;14.52;;;13.30;99.90;;;;;;5011030;28;20198;-95
2021/04/19 12:09:33;;;;;;;23.35;14.90;;;13.30;99.90;;;;;;5015144;28;20198;-91
2021/04/19 12:12:05;;;;;;;19.92;14.73;;;13.30;99.90;;;;;;4997686;28;20278;-95
2021/04/19 12:14:45;;;;;;;25.77;15.80;;;13.30;99.90;;;;;;5002616;28;20179;-94
2021/04/19 12:17:13;;;;;;;19.73;14.50;;;13.40;99.90;;;;;;4997293;28;20163;-91
2021/04/19 12:20:17;;;;;;;18.60;14.48;;;13.50;99.90;;;;;;5005631;28;20266;-94
2021/04/19 12:22:49;;;;;;;18.77;14.73;;;13.50;99.90;;;;;;5016645;28;20197;-91
2021/04/19 12:25:23;;;;;;;18.42;14.13;;;13.40;99.90;;;;;;5016637;28;20198;-95
2021/04/19 12:31:18;;;;;;;20.17;14.85;;;13.80;99.90;;;;;;5034295;28;20201;-93
2021/04/19 12:33:55;;;;;;;20.52;15.40;;;14.10;99.90;;;;;;5016915;28;20174;-94
2021/04/19 12:36:33;;;;;;;21.45;14.90;;;14.10;99.90;;;;;;5017190;28;20186;-94
2021/04/19 12:39:16;;;;;;;19.80;14.75;;;14.30;99.90;;;;;;5016655;28;20290;-94
2021/04/19 12:41:50;;;;;;;19.35;14.65;;;14.40;99.90;;;;;;5017582;28;20285;-94
2021/04/19 12:44:17;;;;;;;18.63;15.00;;;14.30;99.90;;;;;;5016843;28;20173;-91
2021/04/19 12:46:43;;;;;;;21.67;15.85;;;14.40;99.90;;;;;;5016739;28;20221;-96
2021/04/19 12:49:13;;;;;;;19.33;15.27;;;14.20;99.90;;;;;;5017114;28;20179;-92
2021/04/19 12:51:40;;;;;;;20.33;15.00;;;14.20;99.90;;;;;;5032552;28;20276;-93
2021/04/19 12:54:07;;;;;;;20.67;16.42;;;14.20;99.90;;;;;;5036736;28;20181;-94
2021/04/19 12:56:33;;;;;;;21.05;15.35;;;14.10;99.90;;;;;;5017302;28;20638;-93
2021/04/19 12:58:59;;;;;;;20.85;15.57;;;14.20;99.90;;;;;;5017423;28;20214;-92
2021/04/19 13:01:25;;;;;;;26.05;16.88;;;14.20;99.90;;;;;;5036795;28;20194;-92
2021/04/19 13:03:51;;;;;;;20.77;16.42;;;14.40;99.90;;;;;;5036312;28;20266;-94
2021/04/19 13:06:16;;;;;;;21.83;16.88;;;14.50;99.90;;;;;;5041620;28;20202;-90
2021/04/19 13:08:43;;;;;;;19.63;16.02;;;14.70;99.90;;;;;;5038705;28;20678;-92
2021/04/19 13:11:09;;;;;;;20.98;17.42;;;14.60;99.90;;;;;;5037036;28;20224;-95
2021/04/19 13:13:35;;;;;;;21.27;17.35;;;14.60;99.90;;;;;;5033428;28;20243;-94
2021/04/19 13:16:01;;;;;;;21.85;16.77;;;14.80;99.90;;;;;;5034314;28;20170;-93
2021/04/19 13:18:29;;;;;;;20.52;15.68;;;15.00;99.90;;;;;;5029191;28;20175;-92
2021/04/19 13:21:00;;;;;;;18.73;14.23;;;15.10;98.90;;;;;;5035748;28;20171;-93
2021/04/19 13:23:29;;;;;;;21.08;15.75;;;15.10;98.20;;;;;;5036787;28;20178;-91
2021/04/19 13:26:30;;;;;;;19.10;15.38;;;14.80;98.70;;;;;;5037445;28;20213;-93
2021/04/19 13:29:02;;;;;;;17.98;14.15;;;14.80;99.60;;;;;;5036932;28;20574;-94
2021/04/19 13:31:53;;;;;;;18.52;14.73;;;14.70;99.90;;;;;;5036213;28;20202;-91
2021/04/19 13:34:21;;;;;;;19.45;14.95;;;14.60;99.90;;;;;;5036347;28;20206;-93
2021/04/19 13:36:54;;;;;;;17.77;14.68;;;14.40;99.80;;;;;;5037309;28;20189;-92
2021/04/19 13:39:40;;;;;;;17.63;13.75;;;14.30;99.90;;;;;;5036418;28;20221;-95
2021/04/19 13:42:23;;;;;;;20.88;15.02;;;14.10;99.90;;;;;;5042510;28;20297;-92
2021/04/19 13:44:50;;;;;;;20.25;13.45;;;14.00;99.90;;;;;;5048064;28;20203;-96
2021/04/19 13:47:24;;;;;;;19.35;14.20;;;13.90;99.90;;;;;;5049103;28;20186;-93
2021/04/19 13:49:49;;;;;;;15.25;12.77;;;13.80;99.90;;;;;;5050739;28;20181;-95
2021/04/19 13:52:21;;;;;;;17.83;13.50;;;13.70;99.90;;;;;;5042677;28;20198;-94
2021/04/19 13:54:59;;;;;;;17.17;13.57;;;13.60;99.90;;;;;;5039837;28;20174;-96
2021/04/19 13:57:38;;;;;;;18.80;14.27;;;13.50;99.90;;;;;;5039645;28;20252;-94
2021/04/19 14:00:15;;;;;;;19.23;14.45;;;13.40;99.90;;;;;;5027649;28;20667;-92
2021/04/19 14:02:46;;;;;;;21.67;14.82;;;13.40;99.90;;;;;;5038731;28;20198;-93
2021/04/19 14:05:12;;;;;;;18.60;14.50;;;13.30;99.90;;;;;;5026784;28;20214;-95
2021/04/19 14:07:40;;;;;;;19.55;14.00;;;13.30;99.90;;;;;;5019375;28;20190;-93
2021/04/19 14:10:11;;;;;;;18.80;15.27;;;13.20;99.90;;;;;;5019797;28;20163;-92
2021/04/19 14:12:40;;;;;;;18.77;14.35;;;13.30;99.90;;;;;;5018861;28;20203;-94